WEATHER DATA

YESTERDAY
Time Temp. Dewp. Hum. Wind dir Wind speed Wind gust Bar. 1h Prec. 24h Prec.
00:05 17 13.1 78 236 0.6 1.1 1000.3 0.0000 0.0000
00:15 17 13.1 78 237 0.3 1.1 1000.1 0.0000 0.0000
00:26 16.9 13.2 79 218 0.3 0.6 1000.1 0.0000 0.0000
00:36 16.8 13.1 79 198 0.3 0.6 1000.1 0.0000 0.0000
00:46 16.7 13.2 80 233 0.3 0.8 1000.1 0.0000 0.0000
00:55 16.6 13.1 80 315 0.3 1.1 1000 0.0000 0.0000
01:06 16.5 13 80 225 0.3 0.8 1000 0.0000 0.0000
01:16 16.4 12.9 80 225 0.3 0.6 999.9 0.0000 0.0000
01:26 16.3 13 81 236 0.3 0.8 999.9 0.0000 0.0000
01:36 16.2 12.9 81 225 0.3 0.6 999.9 0.0000 0.0000
01:46 16.1 12.8 81 315 0.3 0.6 999.9 0.0000 0.0000
01:56 16.1 13 82 270 0.3 0.6 999.8 0.0000 0.0000
02:06 16 12.9 82 225 0.3 0.6 999.8 0.0000 0.0000
02:17 15.9 12.8 82 225 0.3 0.8 999.8 0.0000 0.0000
02:26 15.9 12.8 82 235 0.6 1.1 1000.1 0.0000 0.0000
02:36 15.8 12.7 82 270 0.3 1.1 1000 0.0000 0.0000
02:46 15.8 12.9 83 270 0.3 0.8 1000 0.0000 0.0000
02:57 15.7 13 84 270 0.3 0.6 999.9 0.0000 0.0000
03:07 15.6 12.9 84 232 0.3 0.8 1000 0.0000 0.0000
03:16 15.5 12.8 84 225 0.3 0.6 999.8 0.0000 0.0000
03:27 15.4 12.9 85 270 0.3 0.6 999.8 0.0000 0.0000
03:37 15.3 12.8 85 203 0.3 0.8 999.7 0.0000 0.0000
03:47 15.2 12.9 86 237 0.3 0.8 999.7 0.0000 0.0000
03:57 15.2 12.9 86 270 0.3 0.6 999.8 0.0000 0.0000
04:07 15.1 12.8 86 0.3 0.6 999.7 0.0000 0.0000
04:17 15 12.7 86 225 0.3 0.8 999.9 0.0000 0.0000
04:27 15 12.7 86 210 0.3 0.6 999.7 0.1010 0.1000
04:38 15 12.9 87 229 0.3 1.1 999.7 0.1010 0.1000
04:47 14.9 12.8 87 270 0.3 0.6 999.7 0.1010 0.1000
04:57 14.9 12.8 87 270 0.3 0.8 999.7 0.1010 0.1000
05:07 14.8 12.7 87 235 0.3 0.8 999.6 0.1010 0.1000
05:18 14.7 12.6 87 270 0.3 0.8 999.5 0.1010 0.1000
05:28 14.7 12.6 87 235 0.3 1.4 999.6 0.0000 0.1000
05:37 14.7 12.7 88 217 0.3 0.6 999.7 0.0000 0.1000
05:48 14.6 12.6 88 228 0.3 0.8 999.7 0.0000 0.1000
05:58 14.6 12.6 88 270 0.3 0.8 999.7 0.0000 0.1000
06:08 14.6 12.6 88 270 0.3 0.8 999.9 0.0000 0.1000
06:18 14.6 12.6 88 218 0.3 1.4 999.8 0.0000 0.1000
06:28 14.6 12.8 89 255 0.6 1.4 999.8 0.0000 0.1000
06:38 14.6 12.8 89 270 0.6 1.9 1000.1 0.0000 0.1000
06:48 14.6 12.8 89 270 0.6 2.5 1000.1 0.0000 0.1000
06:59 14.6 12.6 88 305 0.6 1.9 1000.2 0.0000 0.1000
07:08 14.6 12.6 88 300 0.6 1.9 1000.3 0.0000 0.1000
07:18 14.6 12.6 88 234 0.8 2.5 1000.4 0.0000 0.1000
07:28 14.6 12.6 88 250 0.6 2.5 1000.5 0.0000 0.1000
07:39 14.6 12.5 87 315 0.6 1.9 1000.4 0.0000 0.1000
07:49 14.7 12.6 87 270 0.8 3.1 1000.5 0.0000 0.1000
07:58 14.7 12.6 87 270 0.6 2.2 1000.5 0.0000 0.1000
08:09 14.7 12.7 88 250 0.6 1.7 1000.5 0.0000 0.1000
08:19 14.7 12.6 87 270 0.8 2.2 1000.7 0.0000 0.1000
08:29 14.8 12.7 87 270 0.6 1.9 1000.6 0.0000 0.1000
08:39 14.7 12.6 87 256 0.8 3.1 1000.8 0.0000 0.1000
08:49 14.6 12.5 87 286 0.8 2.5 1001.1 0.0000 0.1000
08:59 14.5 12.4 87 234 0.3 1.1 1001.1 0.0000 0.1000
09:09 14.5 12.4 87 270 0.8 2.2 1001.2 0.0000 0.1000
09:19 14.5 12.4 87 270 0.8 2.2 1001.3 0.0000 0.1000
09:30 14.5 12.4 87 270 0.6 1.7 1001.4 0.0000 0.1000
09:39 14.4 12.1 86 270 0.8 3.3 1001.4 0.0000 0.1000
09:49 14.6 12.3 86 270 0.8 2.5 1001.5 0.0000 0.1000
10:00 14.8 12.3 85 262 1.4 3.1 1001.7 0.0000 0.1000
10:10 14.9 12.2 84 294 0.6 1.4 1001.9 0.0000 0.1000
10:20 14.8 11.9 83 256 1.1 2.8 1001.9 0.0000 0.1000
10:30 14.7 11.8 83 270 0.8 1.9 1001.9 0.0000 0.1000
10:40 14.6 11.7 83 297 0.8 1.9 1002 0.0000 0.1000
10:50 14.6 11.7 83 270 1.1 2.2 1002.3 0.0000 0.1000
11:00 14.5 11.5 82 270 1.1 2.5 1002.4 0.0000 0.1000
11:11 14.5 11.5 82 239 1.1 3.1 1002.6 0.0000 0.1000
11:20 14.4 11.4 82 270 1.1 3.3 1002.7 0.0000 0.1000
11:30 14.3 11.3 82 270 0.8 3.6 1002.7 0.0000 0.1000
11:40 14.4 11.4 82 285 0.8 2.2 1002.8 0.0000 0.1000
11:51 14.6 11.4 81 270 0.8 1.9 1003 0.0000 0.1000
12:01 14.5 11.3 81 270 0.8 1.9 1003 0.0000 0.1000
12:10 14.5 11.3 81 252 0.8 3.1 1003 0.0000 0.1000
12:21 14.6 11.4 81 270 1.1 2.2 1003.2 0.0000 0.1000
12:31 14.5 11.3 81 261 1.1 2.5 1003.2 0.0000 0.1000
12:41 14.4 11.4 82 270 0.8 2.2 1003.5 0.0000 0.1000
12:51 14.4 11.6 83 270 0.8 2.2 1003.5 0.0000 0.1000
13:01 14.4 11.6 83 277 1.4 3.1 1003.5 0.0000 0.1000
13:11 14.5 11.7 83 288 1.1 3.1 1003.7 0.0000 0.1000
13:21 14.8 11.8 82 241 1.4 3.9 1003.7 0.0000 0.1000
13:32 15.3 12.1 81 264 1.4 3.3 1003.8 0.0000 0.1000
13:42 15.4 12 80 270 1.1 3.3 1003.9 0.0000 0.1000
13:51 15.4 11.8 79 297 1.1 2.5 1004.3 0.0000 0.1000
14:01 15.2 11.6 79 325 1.1 3.1 1004.4 0.0000 0.1000
14:22 15.4 11.6 78 270 1.1 3.9 1004.5 0.0000 0.1000
14:32 15.9 11.9 77 286 1.1 3.3 1004.6 0.0000 0.1000
14:42 16.3 11.5 73 21 1.1 3.6 1005 0.0000 0.1000
14:52 16.4 11.1 71 309 1.4 5.8 1005 0.0000 0.1000
15:02 17 11.5 70 286 1.1 3.6 1005 0.0000 0.1000
15:12 17.5 11.3 67 270 1.1 3.9 1005.1 0.0000 0.1000
15:23 18.1 11.7 66 312 1.1 4.2 1005 0.0000 0.1000
15:32 18.6 11.9 65 300 1.4 3.3 1005.1 0.0000 0.1000
15:42 19.1 11.9 63 296 1.4 4.2 1005.3 0.0000 0.1000
15:53 18.8 11.6 63 270 1.4 3.1 1005.4 0.0000 0.1000
16:03 18.9 11.7 63 283 1.4 3.6 1005.3 0.0000 0.1000
16:13 19.5 12 62 278 1.1 4.2 1005.5 0.0000 0.1000
16:23 19.8 11.8 60 275 1.7 3.6 1005.7 0.0000 0.1000
16:33 19.7 11.7 60 289 1.1 2.5 1005.8 0.0000 0.1000
16:43 19.3 11.6 61 270 1.1 3.1 1006.1 0.0000 0.1000
16:53 18.7 11.3 62 251 1.7 4.7 1006.3 0.0000 0.1000
17:03 18.1 11.4 65 261 1.1 3.1 1006.6 0.0000 0.1000
17:13 17.8 11.4 66 270 1.1 2.2 1006.7 0.0000 0.1000
17:23 17.6 11.6 68 251 0.8 2.2 1006.7 0.0000 0.1000
17:33 17.5 11.8 69 253 0.8 2.8 1006.9 0.0000 0.1000
17:44 17.4 11.9 70 236 0.8 1.4 1007 0.0000 0.1000
17:54 17.6 12.5 72 249 0.8 1.9 1007 0.0000 0.1000
18:04 17.7 12.2 70 270 0.6 1.4 1007.1 0.0000 0.1000
18:13 17.7 12.2 70 4 0.8 2.5 1007.2 0.0000 0.1000
18:24 18.4 12.2 67 349 0.8 3.1 1007.3 0.0000 0.1000
18:34 18.7 12.2 66 270 0.8 3.1 1007.5 0.0000 0.1000
18:44 18.5 11.3 63 288 0.8 2.5 1007.6 0.0000 0.1000
18:54 18.8 11.4 62 270 1.1 5 1007.6 0.0000 0.1000
19:04 19 11.3 61 270 1.1 2.8 1007.8 0.0000 0.1000
19:14 18.9 10.5 58 278 1.1 4.4 1007.8 0.0000 0.1000
19:24 18.5 10.1 58 270 0.8 2.5 1008 0.0000 0.1000
19:35 18.1 10.2 60 270 0.8 2.2 1007.9 0.0000 0.1000
19:45 17.8 10.2 61 315 0.6 2.8 1008.3 0.0000 0.1000
19:54 17.6 10 61 270 0.6 1.7 1008.5 0.0000 0.1000
20:05 17.3 10 62 15 0.6 1.7 1008.6 0.0000 0.1000
20:15 17 9.9 63 333 0.6 1.9 1008.8 0.0000 0.1000
20:25 16.7 10.1 65 30 0.6 1.7 1009 0.0000 0.1000
20:35 16.4 10 66 335 0.6 1.4 1009.3 0.0000 0.1000
20:45 16.2 10.1 67 333 0.3 1.1 1009.2 0.0000 0.1000
20:55 16.1 10.4 69 270 0.3 1.1 1009.5 0.0000 0.1000
21:05 16 10.3 69 225 0.3 0.8 1009.6 0.0000 0.1000
21:15 15.8 10.3 70 225 0.3 0.8 1009.7 0.0000 0.1000
21:26 15.6 10.4 71 135 0.3 0.6 1009.7 0.0000 0.1000
21:35 15.5 10.5 72 225 0.3 0.6 1009.7 0.0000 0.1000
21:45 15.3 10.5 73 225 0.3 0.6 1009.8 0.0000 0.1000
21:56 15.1 10.3 73 225 0.3 0.8 1009.8 0.0000 0.1000
22:06 15 10.2 73 149 0.3 1.4 1010 0.0000 0.1000
22:16 14.9 10.3 74 220 0.3 0.6 1010 0.0000 0.1000
22:26 14.6 10 74 90 0.3 0.6 1010.2 0.0000 0.1000
22:36 14.3 9.9 75 195 0.3 0.6 1010.3 0.0000 0.1000
22:46 14.1 9.7 75 200 0.3 0.6 1010.4 0.0000 0.1000
22:56 14 9.8 76 198 0.3 0.6 1010.4 0.0000 0.1000
23:07 13.7 9.6 76 183 0.3 0.6 1010.4 0.0000 0.1000
23:16 13.5 9.6 77 188 0.3 0.6 1010.5 0.0000 0.1000
23:26 13.2 9.3 77 186 0.3 0.6 1010.7 0.0000 0.1000
23:36 13 9.3 78 195 0.3 0.6 1010.7 0.0000 0.1000
23:47 12.7 9 78 212 0.3 0.8 1010.7 0.0000 0.1000
23:57 12.5 9 79 225 0.3 0.6 1010.7 0.0000

DAY STATISTIC

2021-08-03
TEMPERATURE
AVERAGE
15.8
HIGH
19.8
16:23
LOW
12.5
23:57
PRESSURE
AVERAGE
1003.8
HIGH
1010.7
23:26
LOW
999.5
05:18
DEWPOINT
AVERAGE
11.8
HIGH
13.2
00:26
LOW
9.0
23:47
HUMIDITY
AVERAGE
78
HIGH
89
06:28
LOW
58
19:14
WIND SPEED
AVERAGE
0.7
HIGH
1.7
16:23
WIND GUST
AVERAGE
1.9
HIGH
5.8
14:52
WIND DIRECTION
PREVAILING
W
50.7%
N
2.8
NE
0.7
E
0.7
SE
1.4
S
6.3
SW
24.6
W
50.7
NW
12.0
PRECIPITATION
RAIN HOUR
0.1
RAIN DAY
0.1
TEMPERATURE (°C)
LOW
12.5
HIGH
19.8
AVERAGE
15.8
PRESSURE (hpa)
LOW
999.5
HIGH
1010.7
AVERAGE
1003.8
DEVICE